Time;durP1;ratioP1;P1;durP2;ratioP2;P2;SDS_P1;SDS_P2;PMS_P1;PMS_P2;Temp;Humidity;BMP_temperature;BMP_pressure;BME280_temperature;BME280_humidity;BME280_pressure;Samples;Min_cycle;Max_cycle;Signal;HPM_P1;HPM_P2
2022/05/14 00:04:58;;;;;;;3.58;1.58;;;;;;;11.92;61.17;100413.97;10567094;28;20055;-79
2022/05/14 00:09:59;;;;;;;4.20;2.20;;;;;;;11.79;61.51;100424.84;10568888;28;20048;-78
2022/05/14 00:15:01;;;;;;;2.60;1.80;;;;;;;11.70;61.80;100424.28;10559131;28;20056;-81
2022/05/14 00:20:03;;;;;;;2.83;1.45;;;;;;;11.72;61.59;100417.16;10551758;28;20074;-81
2022/05/14 00:25:05;;;;;;;2.50;1.90;;;;;;;11.81;60.70;100411.63;10550662;28;20036;-81
2022/05/14 00:30:07;;;;;;;4.78;1.60;;;;;;;11.73;60.73;100422.41;10551388;28;20554;-81
2022/05/14 00:35:10;;;;;;;2.58;1.60;;;;;;;11.71;61.94;100424.22;10550870;28;20504;-80
2022/05/14 00:40:40;;;;;;;7.22;1.92;;;;;;;11.69;62.06;100423.41;10534517;28;20074;-80
2022/05/14 00:45:50;;;;;;;3.97;1.80;;;;;;;11.70;61.69;100411.97;10529263;28;20046;-80
2022/05/14 00:50:56;;;;;;;3.67;1.70;;;;;;;11.65;62.09;100415.66;10532102;28;20044;-81
2022/05/14 00:56:01;;;;;;;4.40;1.80;;;;;;;11.52;62.21;100410.75;10550612;28;20036;-81
2022/05/14 01:01:04;;;;;;;5.30;2.13;;;;;;;11.57;61.53;100410.59;10532340;28;20048;-80
2022/05/14 01:06:10;;;;;;;3.22;1.50;;;;;;;11.49;62.19;100397.66;10548692;28;20064;-78
2022/05/14 01:11:12;;;;;;;3.70;2.23;;;;;;;11.50;62.66;100399.38;10530941;28;20048;-77
2022/05/14 01:16:14;;;;;;;3.33;1.80;;;;;;;11.47;62.36;100403.91;10514324;28;20051;-77
2022/05/14 01:21:32;;;;;;;4.57;2.10;;;;;;;11.36;63.11;100401.56;10513842;28;20055;-79
2022/05/14 01:26:36;;;;;;;5.45;2.33;;;;;;;11.18;63.81;100410.00;10530809;28;20126;-77
2022/05/14 01:31:43;;;;;;;3.25;1.98;;;;;;;11.16;64.15;100406.56;10534290;28;20044;-77
2022/05/14 01:36:45;;;;;;;4.32;1.98;;;;;;;11.06;64.87;100411.19;10531561;28;20043;-78
2022/05/14 01:41:47;;;;;;;3.97;1.67;;;;;;;11.21;64.63;100409.91;10525785;28;20071;-78
2022/05/14 01:46:49;;;;;;;5.13;2.10;;;;;;;10.95;65.33;100406.22;10541360;28;20068;-77
2022/05/14 01:51:51;;;;;;;4.07;1.70;;;;;;;10.85;65.69;100400.38;10537558;28;20044;-77
2022/05/14 01:56:53;;;;;;;2.92;1.73;;;;;;;10.80;65.58;100406.63;10518533;28;20074;-77
2022/05/14 02:01:55;;;;;;;5.53;1.50;;;;;;;10.72;66.06;100406.84;10534825;28;20056;-78
2022/05/14 02:06:56;;;;;;;3.58;2.10;;;;;;;10.75;66.09;100408.53;10557286;22;20134;-81
2022/05/14 02:12:01;;;;;;;3.30;1.77;;;;;;;10.70;66.41;100394.63;10553912;28;20505;-79
2022/05/14 02:17:07;;;;;;;2.30;1.85;;;;;;;10.69;66.65;100400.81;10451316;28;20435;-79
2022/05/14 02:22:09;;;;;;;3.33;1.70;;;;;;;10.63;66.93;100395.72;10465544;28;20523;-78
2022/05/14 02:27:10;;;;;;;2.67;1.98;;;;;;;10.85;66.43;100395.09;10465405;28;20074;-78
2022/05/14 02:32:12;;;;;;;3.20;2.10;;;;;;;10.64;67.00;100390.41;10456050;28;20073;-78
2022/05/14 02:37:17;;;;;;;4.72;2.38;;;;;;;10.47;67.90;100396.09;10569265;28;20442;-80
2022/05/14 02:42:20;;;;;;;2.63;1.50;;;;;;;10.64;66.80;100392.19;10486744;28;20050;-79
2022/05/14 02:47:21;;;;;;;2.72;1.75;;;;;;;10.52;66.03;100393.34;10459531;28;20058;-78
2022/05/14 02:52:25;;;;;;;3.28;1.52;;;;;;;10.38;67.05;100377.94;10465233;28;20067;-78
2022/05/14 02:57:27;;;;;;;3.00;1.80;;;;;;;10.35;66.63;100385.91;10448725;28;20078;-78
2022/05/14 03:02:28;;;;;;;4.03;2.05;;;;;;;10.39;67.35;100384.91;10449824;28;20044;-79
2022/05/14 03:07:30;;;;;;;6.82;2.15;;;;;;;10.26;67.83;100386.97;10466650;28;20047;-78
2022/05/14 03:12:32;;;;;;;3.47;2.05;;;;;;;10.27;67.38;100387.84;10555519;28;20062;-78
2022/05/14 03:17:34;;;;;;;3.67;2.25;;;;;;;10.25;67.51;100385.25;10472389;28;20119;-78
2022/05/14 03:22:38;;;;;;;3.75;3.05;;;;;;;10.34;67.37;100389.44;10468089;28;20046;-78
2022/05/14 03:27:39;;;;;;;4.95;4.15;;;;;;;10.37;66.87;100388.50;10466689;28;20457;-78
2022/05/14 03:32:41;;;;;;;6.55;4.13;;;;;;;10.43;66.43;100388.34;10464782;28;20105;-78
2022/05/14 03:37:43;;;;;;;7.47;3.97;;;;;;;10.53;65.38;100395.06;10549748;28;20036;-79
2022/05/14 03:42:45;;;;;;;3.33;2.72;;;;;;;10.62;65.43;100400.09;10466461;28;20098;-79
2022/05/14 03:47:47;;;;;;;3.15;2.35;;;;;;;10.73;65.81;100395.44;10551250;28;20046;-78
2022/05/14 03:52:49;;;;;;;2.42;1.92;;;;;;;10.83;64.91;100399.53;10547934;28;20149;-78
2022/05/14 03:57:50;;;;;;;3.95;2.67;;;;;;;11.05;65.09;100394.53;10551860;28;20447;-78
2022/05/14 04:02:52;;;;;;;3.17;2.22;;;;;;;11.07;65.81;100397.16;10462576;28;20143;-78
2022/05/14 04:07:53;;;;;;;3.60;2.25;;;;;;;11.11;65.71;100409.28;10461120;28;20048;-78
2022/05/14 04:12:55;;;;;;;2.92;1.80;;;;;;;11.21;65.81;100404.66;10464697;28;20040;-80
2022/05/14 04:17:57;;;;;;;3.17;2.20;;;;;;;11.33;65.19;100399.00;10464712;28;20086;-80
2022/05/14 04:22:59;;;;;;;4.13;1.63;;;;;;;11.41;65.60;100401.44;10466366;28;20052;-80
2022/05/14 04:28:01;;;;;;;3.20;2.00;;;;;;;11.52;65.25;100402.84;10464176;28;20093;-79
2022/05/14 04:33:02;;;;;;;3.58;1.70;;;;;;;11.64;65.05;100414.75;10463376;28;20044;-79
2022/05/14 04:38:04;;;;;;;2.20;1.98;;;;;;;11.75;64.83;100410.03;10462707;28;20048;-80
2022/05/14 04:43:08;;;;;;;3.55;2.17;;;;;;;11.75;64.41;100409.19;10466055;28;20626;-79
2022/05/14 04:48:11;;;;;;;3.58;1.73;;;;;;;11.91;64.07;100410.47;10562555;28;20124;-79
2022/05/14 04:53:13;;;;;;;2.58;1.95;;;;;;;11.99;64.32;100415.50;10564311;28;20056;-79
2022/05/14 04:58:15;;;;;;;4.93;2.22;;;;;;;12.13;64.02;100408.03;10565568;28;20098;-80
2022/05/14 05:03:20;;;;;;;4.53;2.15;;;;;;;12.14;63.80;100406.25;10479810;28;20044;-79
2022/05/14 05:08:30;;;;;;;4.97;2.15;;;;;;;12.26;63.68;100417.25;10478626;28;20075;-79
2022/05/14 05:13:32;;;;;;;6.55;2.33;;;;;;;12.45;63.71;100416.66;10565374;28;20044;-80
2022/05/14 05:18:34;;;;;;;2.83;2.00;;;;;;;12.56;63.39;100422.41;10565573;28;20044;-79
2022/05/14 05:23:35;;;;;;;3.05;1.95;;;;;;;12.87;62.98;100422.22;10564977;28;20032;-79
2022/05/14 05:28:37;;;;;;;3.33;2.03;;;;;;;13.21;61.18;100431.59;10476922;28;20089;-79
2022/05/14 05:33:39;;;;;;;4.47;1.55;;;;;;;13.42;60.03;100428.19;10564248;28;20082;-80
2022/05/14 05:38:40;;;;;;;4.25;1.73;;;;;;;13.58;61.06;100426.69;10569283;28;20063;-79
2022/05/14 05:43:42;;;;;;;3.45;1.30;;;;;;;13.90;56.89;100421.97;10480197;28;20032;-80
2022/05/14 05:48:43;;;;;;;4.30;1.40;;;;;;;14.29;56.63;100423.91;10563896;28;20048;-79
2022/05/14 05:59:06;;;;;;;4.50;1.35;;;;;;;16.06;52.04;100437.25;10556531;28;20056;-77
2022/05/14 06:04:07;;;;;;;2.45;1.20;;;;;;;16.42;50.44;100432.88;10467056;28;20075;-78
2022/05/14 06:09:14;;;;;;;2.60;1.02;;;;;;;16.31;51.17;100441.41;10555579;28;20425;-78
2022/05/14 06:14:17;;;;;;;2.53;1.10;;;;;;;16.92;50.07;100443.66;10555974;28;20488;-79
2022/05/14 06:19:19;;;;;;;4.50;1.45;;;;;;;17.17;49.71;100445.03;10555307;28;20056;-78
2022/05/14 06:24:20;;;;;;;3.35;1.20;;;;;;;17.48;48.51;100453.09;10566310;28;20040;-77
2022/05/14 06:29:23;;;;;;;3.05;1.10;;;;;;;17.78;48.42;100447.94;10571487;28;20044;-77
2022/05/14 06:34:25;;;;;;;1.85;0.90;;;;;;;18.14;47.19;100447.69;10579313;28;20043;-78
2022/05/14 06:39:28;;;;;;;1.90;1.10;;;;;;;18.59;46.34;100443.34;10574917;28;20036;-78
2022/05/14 06:44:30;;;;;;;4.55;1.40;;;;;;;18.56;45.19;100438.19;10493269;28;20366;-78
2022/05/14 06:49:31;;;;;;;4.50;1.67;;;;;;;18.78;45.32;100444.94;10582116;28;20043;-78
2022/05/14 06:54:36;;;;;;;4.05;1.30;;;;;;;18.93;45.91;100446.69;10582736;28;20048;-78
2022/05/14 06:59:38;;;;;;;3.60;1.42;;;;;;;19.04;45.08;100448.72;10583322;28;20059;-78
2022/05/14 07:10:02;;;;;;;4.25;1.50;;;;;;;18.93;44.28;100456.50;10584149;28;20112;-78
2022/05/14 07:15:06;;;;;;;3.90;1.40;;;;;;;18.90;46.07;100462.84;10498631;28;20036;-78
2022/05/14 07:20:09;;;;;;;4.85;1.42;;;;;;;18.90;45.13;100462.84;10584815;28;20048;-78
2022/05/14 07:25:11;;;;;;;4.35;1.67;;;;;;;18.90;46.28;100461.06;10579059;28;20068;-79
2022/05/14 07:30:13;;;;;;;15.05;2.25;;;;;;;19.06;45.73;100468.13;10497479;28;20056;-77
2022/05/14 07:35:15;;;;;;;5.13;1.40;;;;;;;19.48;44.57;100467.34;10577614;28;20040;-78
2022/05/14 07:40:28;;;;;;;6.55;2.25;;;;;;;19.69;44.37;100467.81;10576415;28;20040;-78
2022/05/14 07:45:34;;;;;;;5.28;2.08;;;;;;;19.34;45.11;100454.81;10575129;28;20044;-78
2022/05/14 07:50:36;;;;;;;5.30;2.00;;;;;;;19.41;44.37;100458.00;10490572;28;20089;-79
2022/05/14 07:55:38;;;;;;;3.50;2.03;;;;;;;19.92;44.84;100461.03;10577223;28;20055;-78
2022/05/14 08:00:39;;;;;;;5.32;2.95;;;;;;;19.60;43.51;100460.38;10490810;28;20048;-78
2022/05/14 08:05:42;;;;;;;5.30;2.28;;;;;;;19.69;44.84;100456.28;10600957;22;20055;-81
2022/05/14 08:10:43;;;;;;;5.00;2.13;;;;;;;19.98;44.13;100459.78;10585772;28;20051;-79
2022/05/14 08:15:47;;;;;;;3.95;2.10;;;;;;;20.23;44.84;100461.72;10491559;28;20077;-80
2022/05/14 08:20:50;;;;;;;6.18;2.50;;;;;;;20.08;43.49;100464.44;10559080;28;20044;-80
2022/05/14 08:25:56;;;;;;;4.78;2.15;;;;;;;19.92;44.57;100453.00;10471774;28;20453;-80
2022/05/14 08:30:57;;;;;;;6.38;2.00;;;;;;;20.23;43.12;100451.91;10555741;28;20070;-81
2022/05/14 08:36:00;;;;;;;5.07;2.17;;;;;;;20.87;41.89;100454.81;10466763;28;20051;-81
2022/05/14 08:41:02;;;;;;;4.22;2.15;;;;;;;20.31;41.35;100446.91;10474924;28;20056;-80
2022/05/14 08:46:08;;;;;;;3.40;1.77;;;;;;;20.34;42.06;100448.53;10580574;28;20048;-79
2022/05/14 08:51:16;;;;;;;5.57;2.20;;;;;;;20.38;42.63;100434.88;10581026;28;20048;-79
2022/05/14 08:56:26;;;;;;;6.03;2.28;;;;;;;20.76;40.85;100436.84;10581806;28;20025;-80
2022/05/14 09:01:32;;;;;;;11.88;2.63;;;;;;;20.95;42.67;100438.25;10477404;28;20048;-79
2022/05/14 09:06:35;;;;;;;8.35;3.90;;;;;;;21.17;40.61;100428.66;10498611;28;20075;-81
2022/05/14 09:11:44;;;;;;;6.63;4.07;;;;;;;20.94;39.24;100440.09;10568118;28;20096;-79
2022/05/14 09:16:50;;;;;;;5.63;3.60;;;;;;;20.54;40.99;100434.75;10571776;28;20048;-80
2022/05/14 09:21:57;;;;;;;5.50;2.83;;;;;;;21.27;41.48;100426.19;10570468;28;20039;-80
2022/05/14 09:27:12;;;;;;;5.45;3.92;;;;;;;21.44;41.36;100429.53;10569917;28;20397;-81
2022/05/14 09:32:16;;;;;;;7.68;3.92;;;;;;;21.17;41.77;100417.97;10585537;28;20115;-80
2022/05/14 09:37:21;;;;;;;6.35;3.28;;;;;;;21.71;40.87;100421.34;10507035;28;20043;-79
2022/05/14 09:42:43;;;;;;;5.10;3.13;;;;;;;21.57;39.06;100415.19;10504377;28;20059;-80
2022/05/14 09:47:45;;;;;;;5.50;3.35;;;;;;;21.74;39.52;100413.13;10504136;28;20053;-80
2022/05/14 09:52:59;;;;;;;7.07;3.42;;;;;;;21.73;39.18;100400.69;10503853;28;20142;-79
2022/05/14 09:58:15;;;;;;;4.88;3.85;;;;;;;21.40;38.68;100407.50;10591621;28;20040;-79
2022/05/14 10:03:35;;;;;;;8.20;3.72;;;;;;;22.06;39.33;100395.56;10505234;28;20044;-80
2022/05/14 10:08:43;;;;;;;5.38;3.40;;;;;;;21.87;40.35;100403.22;10588530;28;20028;-79
2022/05/14 10:14:00;;;;;;;6.53;3.97;;;;;;;22.04;38.26;100400.16;10503307;28;20052;-79
2022/05/14 10:19:35;;;;;;;7.50;3.70;;;;;;;22.04;41.03;100397.47;10493812;28;20040;-80
2022/05/14 10:30:17;;;;;;;5.40;2.77;;;;;;;22.64;38.79;100388.53;10497526;28;20040;-79
2022/05/14 10:35:25;;;;;;;6.20;3.03;;;;;;;22.21;39.20;100388.22;10584514;28;20270;-79
2022/05/14 10:40:34;;;;;;;6.43;2.47;;;;;;;21.99;40.08;100383.56;10581226;28;20040;-79
2022/05/14 10:45:42;;;;;;;7.57;2.75;;;;;;;22.04;39.48;100389.44;10578625;28;20048;-79
2022/05/14 10:50:43;;;;;;;5.72;2.33;;;;;;;22.20;38.47;100378.50;10557907;28;20563;-80
2022/05/14 10:56:04;;;;;;;4.43;2.42;;;;;;;21.83;39.72;100377.66;10466409;28;20486;-80
2022/05/14 11:01:07;;;;;;;4.82;2.30;;;;;;;21.84;38.52;100390.06;10554715;28;20054;-80
2022/05/14 11:06:12;;;;;;;4.90;2.78;;;;;;;21.77;40.02;100378.94;10558058;28;20051;-81
2022/05/14 11:11:22;;;;;;;4.95;2.15;;;;;;;21.78;39.14;100379.78;10558689;28;20516;-81
2022/05/14 11:16:39;;;;;;;8.57;1.92;;;;;;;22.30;38.77;100378.66;10473725;28;20043;-79
2022/05/14 11:21:46;;;;;;;4.65;1.98;;;;;;;21.70;38.59;100380.38;10559072;28;20044;-79
2022/05/14 11:26:53;;;;;;;6.95;2.08;;;;;;;22.37;39.11;100374.56;10470002;28;20040;-82
2022/05/14 11:32:13;;;;;;;6.15;2.17;;;;;;;22.81;37.78;100379.19;10475262;28;20501;-82
2022/05/14 11:37:27;;;;;;;7.95;2.03;;;;;;;22.83;37.07;100371.88;10496836;28;20099;-79
2022/05/14 11:42:30;;;;;;;4.40;1.63;;;;;;;22.94;38.23;100372.91;10588571;28;20103;-81
2022/05/14 11:47:31;;;;;;;8.60;1.73;;;;;;;22.51;38.51;100363.63;10588714;28;20061;-81
2022/05/14 11:53:05;;;;;;;4.38;1.42;;;;;;;22.51;37.84;100371.66;10562427;28;20105;-81
2022/05/14 11:58:24;;;;;;;4.32;1.48;;;;;;;22.41;38.70;100382.25;10558361;28;20489;-81
2022/05/14 12:03:33;;;;;;;5.00;1.23;;;;;;;22.16;38.50;100375.19;10553831;28;20501;-81
2022/05/14 12:08:47;;;;;;;6.07;1.77;;;;;;;22.11;39.02;100371.13;10553579;28;20564;-80
2022/05/14 12:14:10;;;;;;;;;;;;;;;22.64;38.20;100371.59;10469527;28;20043;-80
2022/05/14 12:19:21;;;;;;;5.35;1.73;;;;;;;21.68;36.99;100366.22;10468677;28;19987;-80
2022/05/14 12:24:35;;;;;;;11.75;1.50;;;;;;;21.61;38.56;100378.38;10465471;28;20048;-81
2022/05/14 12:29:56;;;;;;;3.45;1.30;;;;;;;22.39;37.87;100377.94;10552251;28;20386;-81
2022/05/14 12:34:58;;;;;;;4.65;1.63;;;;;;;22.72;37.93;100371.00;10553759;28;20075;-81
2022/05/14 12:40:30;;;;;;;4.20;1.50;;;;;;;22.74;37.81;100369.06;10553670;28;20543;-80
2022/05/14 12:45:37;;;;;;;4.80;1.63;;;;;;;22.09;38.17;100373.91;10553568;28;20044;-80
2022/05/14 12:50:51;;;;;;;3.88;1.83;;;;;;;22.32;38.35;100369.53;10465245;28;20478;-82
2022/05/14 12:55:54;;;;;;;4.93;1.30;;;;;;;22.23;38.80;100367.56;10462522;28;20102;-80
2022/05/14 13:00:56;;;;;;;4.75;1.67;;;;;;;22.30;36.79;100367.94;10551789;28;20420;-81
2022/05/14 13:06:02;;;;;;;5.22;1.88;;;;;;;22.09;37.36;100360.53;10559345;28;20044;-79
2022/05/14 13:11:14;;;;;;;6.10;1.70;;;;;;;22.48;36.91;100353.16;10469844;28;20052;-79
2022/05/14 13:16:24;;;;;;;6.45;1.63;;;;;;;22.20;37.52;100353.53;10482419;28;20440;-79
2022/05/14 13:21:34;;;;;;;3.78;1.20;;;;;;;22.30;36.12;100355.41;10560653;28;20413;-81
2022/05/14 13:26:38;;;;;;;5.03;1.58;;;;;;;22.55;36.67;100359.75;10557414;28;20067;-79
2022/05/14 13:31:40;;;;;;;3.75;1.52;;;;;;;21.95;36.45;100352.66;10557083;28;20052;-79
2022/05/14 13:37:28;;;;;;;7.75;1.77;;;;;;;22.07;36.01;100351.75;10471198;28;20440;-81
2022/05/14 13:42:09;;;;;;;5.78;1.20;;;;;;;22.36;36.06;100344.25;10534835;28;20151;-81
2022/05/14 13:47:16;;;;;;;4.95;1.50;;;;;;;21.81;38.12;100344.78;10471409;28;20044;-81
2022/05/14 13:52:27;;;;;;;3.83;1.55;;;;;;;21.79;38.16;100342.25;10488605;28;20044;-79
2022/05/14 13:57:29;;;;;;;3.65;1.60;;;;;;;21.98;38.30;100341.72;10482606;28;20044;-81
2022/05/14 14:02:30;;;;;;;3.08;1.42;;;;;;;21.75;37.71;100337.22;10497500;28;20040;-81
2022/05/14 14:07:35;;;;;;;7.13;1.50;;;;;;;21.66;38.41;100330.72;10507489;22;20048;-83
2022/05/14 14:12:37;;;;;;;4.20;1.80;;;;;;;21.52;39.96;100333.56;10562069;28;20105;-83
2022/05/14 14:17:38;;;;;;;5.45;1.70;;;;;;;22.03;38.20;100322.63;10472085;28;20047;-82
2022/05/14 14:22:42;;;;;;;5.68;1.48;;;;;;;22.25;35.53;100314.72;10562796;28;20064;-83
2022/05/14 14:27:44;;;;;;;4.07;1.50;;;;;;;22.22;37.26;100322.13;10475611;28;20044;-83
2022/05/14 14:32:45;;;;;;;5.38;1.65;;;;;;;22.54;36.58;100336.63;10562524;28;20124;-82
2022/05/14 14:37:47;;;;;;;4.40;1.52;;;;;;;22.44;37.55;100318.69;10459525;28;20135;-83
2022/05/14 14:42:49;;;;;;;5.82;1.80;;;;;;;22.48;36.83;100321.00;10463706;28;20051;-82
2022/05/14 14:47:50;;;;;;;4.97;1.95;;;;;;;22.05;37.96;100320.72;10562190;28;20443;-82
2022/05/14 14:52:54;;;;;;;4.22;1.80;;;;;;;22.44;37.04;100324.03;10559162;28;20559;-83
2022/05/14 14:57:55;;;;;;;5.13;1.60;;;;;;;22.27;36.83;100320.84;10487099;28;20052;-83
2022/05/14 15:03:00;;;;;;;3.83;2.03;;;;;;;22.28;37.91;100314.50;10575486;28;20398;-83
2022/05/14 15:08:03;;;;;;;6.45;2.15;;;;;;;22.06;37.71;100311.72;10561810;28;20443;-82
2022/05/14 15:13:09;;;;;;;7.65;2.10;;;;;;;22.32;37.33;100309.78;10474159;28;20067;-83
2022/05/14 15:18:10;;;;;;;;;;;;;;;22.10;38.22;100310.50;10571952;28;20058;-83
2022/05/14 15:23:13;;;;;;;7.18;2.17;;;;;;;22.38;36.41;100304.78;10560770;28;19995;-83
2022/05/14 15:28:15;;;;;;;5.10;1.52;;;;;;;22.13;37.65;100305.81;10490860;28;20023;-82
2022/05/14 15:33:16;;;;;;;9.52;1.52;;;;;;;21.87;36.92;100305.06;10499631;28;20048;-83
2022/05/14 15:38:18;;;;;;;5.13;1.52;;;;;;;22.22;37.45;100306.91;10479040;28;20050;-83
2022/05/14 15:43:24;;;;;;;4.18;1.50;;;;;;;22.78;36.28;100306.22;10480638;28;20086;-83
2022/05/14 15:48:35;;;;;;;3.78;1.70;;;;;;;23.46;34.61;100296.34;10477145;28;20386;-83
2022/05/14 15:53:37;;;;;;;6.68;1.75;;;;;;;22.48;36.66;100298.72;10475394;28;20493;-84
2022/05/14 15:58:39;;;;;;;6.97;1.60;;;;;;;22.22;36.01;100300.72;10484984;28;20549;-83
2022/05/14 16:03:42;;;;;;;2.67;1.58;;;;;;;22.03;36.75;100294.03;10589232;28;20032;-83
2022/05/14 16:08:45;;;;;;;5.47;1.67;;;;;;;22.30;36.99;100293.81;10492907;28;20048;-84
2022/05/14 16:19:07;;;;;;;3.75;1.83;;;;;;;21.63;37.12;100286.31;10472792;28;20527;-83
2022/05/14 16:24:08;;;;;;;4.18;1.80;;;;;;;21.10;39.01;100283.00;10475618;28;20116;-83
2022/05/14 16:29:12;;;;;;;4.03;1.73;;;;;;;21.27;37.38;100283.63;10494945;28;20097;-83
2022/05/14 16:34:19;;;;;;;5.18;1.80;;;;;;;21.24;37.93;100284.69;10562163;28;20040;-83
2022/05/14 16:39:21;;;;;;;5.72;2.20;;;;;;;21.13;38.08;100295.31;10474315;28;20052;-83
2022/05/14 16:44:22;;;;;;;6.50;1.90;;;;;;;20.86;38.46;100290.13;10499606;28;20044;-83
2022/05/14 16:49:24;;;;;;;3.95;1.85;;;;;;;21.13;36.91;100288.16;10572925;28;20090;-83
2022/05/14 16:54:26;;;;;;;6.45;3.00;;;;;;;20.81;38.16;100297.59;10560315;28;20055;-82
2022/05/14 16:59:27;;;;;;;5.63;2.55;;;;;;;20.68;37.40;100294.94;10473902;28;20052;-83
2022/05/14 17:04:29;;;;;;;5.28;3.30;;;;;;;20.58;37.83;100293.84;10477470;28;20048;-83
2022/05/14 17:09:30;;;;;;;3.22;1.70;;;;;;;20.35;38.07;100296.25;10566246;28;20040;-83
2022/05/14 17:14:32;;;;;;;4.47;1.40;;;;;;;20.50;38.13;100296.22;10487121;28;20057;-83
2022/05/14 17:19:52;;;;;;;3.65;1.55;;;;;;;20.24;38.96;100300.63;10513673;28;20043;-83
2022/05/14 17:24:53;;;;;;;2.55;1.63;;;;;;;20.17;39.98;100311.69;10501666;28;20052;-83
2022/05/14 17:29:55;;;;;;;2.95;1.52;;;;;;;20.34;39.99;100310.56;10469978;28;20067;-83
2022/05/14 17:34:56;;;;;;;7.78;2.13;;;;;;;20.10;40.71;100307.75;10567233;28;20489;-84
2022/05/14 17:39:58;;;;;;;4.85;1.85;;;;;;;20.25;40.24;100315.69;10475906;28;20052;-83
2022/05/14 17:44:59;;;;;;;3.83;1.75;;;;;;;20.38;40.12;100319.22;10461156;28;20051;-83
2022/05/14 17:50:01;;;;;;;4.75;1.70;;;;;;;20.22;40.44;100321.22;10476607;28;20145;-83
2022/05/14 17:55:14;;;;;;;5.72;2.08;;;;;;;19.82;42.16;100314.03;10487377;28;20048;-82
2022/05/14 18:00:41;;;;;;;6.13;2.13;;;;;;;19.71;42.08;100321.91;10511266;28;20087;-83
2022/05/14 18:05:45;;;;;;;4.25;2.00;;;;;;;19.82;41.76;100319.38;10508413;28;20140;-83
2022/05/14 18:16:06;;;;;;;5.50;1.63;;;;;;;19.50;42.79;100328.59;10570962;28;20048;-83
2022/05/14 18:21:08;;;;;;;3.05;1.70;;;;;;;19.20;43.84;100334.03;10483024;28;20078;-83
2022/05/14 18:26:10;;;;;;;5.80;2.63;;;;;;;19.23;44.22;100321.38;10481173;28;20085;-83
2022/05/14 18:31:21;;;;;;;4.60;1.83;;;;;;;19.20;44.50;100339.38;10476703;28;20058;-83
2022/05/14 18:36:23;;;;;;;6.00;1.90;;;;;;;18.75;46.41;100346.59;10461516;28;20143;-84
2022/05/14 18:41:34;;;;;;;3.55;1.95;;;;;;;18.31;47.52;100358.06;10564029;28;20040;-83
2022/05/14 18:46:36;;;;;;;5.90;2.58;;;;;;;18.04;48.00;100358.72;10562848;28;20513;-83
2022/05/14 18:51:38;;;;;;;4.00;1.90;;;;;;;18.07;47.74;100363.88;10474554;28;20055;-84
2022/05/14 18:56:39;;;;;;;4.95;2.35;;;;;;;18.07;47.42;100376.31;10562568;28;20455;-83
2022/05/14 19:01:41;;;;;;;3.75;2.40;;;;;;;18.12;46.86;100382.22;10500553;28;20044;-83
2022/05/14 19:12:05;;;;;;;8.95;3.28;;;;;;;17.64;48.53;100391.97;10480152;28;20546;-83
2022/05/14 19:17:09;;;;;;;6.43;3.53;;;;;;;17.74;48.22;100397.66;10460734;28;20052;-83
2022/05/14 19:22:12;;;;;;;5.63;3.72;;;;;;;17.66;48.17;100400.72;10472003;28;20043;-83
2022/05/14 19:27:16;;;;;;;5.35;3.35;;;;;;;17.41;48.95;100409.19;10476443;28;20054;-83
2022/05/14 19:32:17;;;;;;;8.50;3.92;;;;;;;17.20;50.24;100411.19;10475480;28;20490;-83
2022/05/14 19:37:25;;;;;;;10.98;5.03;;;;;;;17.21;49.68;100417.34;10561004;28;20456;-83
2022/05/14 19:42:34;;;;;;;7.32;5.47;;;;;;;17.05;49.59;100422.63;10562631;28;20052;-82
2022/05/14 19:47:40;;;;;;;13.40;4.32;;;;;;;16.96;49.38;100416.00;10492741;28;20067;-83
2022/05/14 19:52:48;;;;;;;7.43;3.53;;;;;;;16.84;50.33;100427.25;10467953;28;20048;-83
2022/05/14 19:58:08;;;;;;;6.72;2.70;;;;;;;17.00;49.55;100422.88;10455603;28;20097;-83
2022/05/14 20:03:10;;;;;;;6.47;3.08;;;;;;;16.83;49.79;100429.06;10470341;28;20056;-83
2022/05/14 20:08:13;;;;;;;7.18;3.83;;;;;;;16.71;50.18;100436.75;10489134;22;20067;-78
2022/05/14 20:13:18;;;;;;;6.13;2.90;;;;;;;16.36;50.30;100434.06;10459579;28;20546;-80
2022/05/14 20:23:43;;;;;;;5.75;2.58;;;;;;;16.45;49.88;100448.66;10462917;28;20055;-79
2022/05/14 20:28:45;;;;;;;7.43;2.55;;;;;;;16.48;49.84;100456.50;10463057;28;20051;-78
2022/05/14 20:33:47;;;;;;;6.45;2.50;;;;;;;16.40;50.17;100464.81;10547218;28;20074;-78
2022/05/14 20:38:48;;;;;;;6.40;2.83;;;;;;;16.23;50.32;100467.44;10460340;28;20050;-80
2022/05/14 20:43:50;;;;;;;7.03;2.83;;;;;;;16.15;50.33;100471.28;10460881;28;20040;-78
2022/05/14 20:48:51;;;;;;;6.13;2.40;;;;;;;16.00;51.48;100473.84;10460456;28;20044;-78
2022/05/14 20:53:53;;;;;;;7.07;2.38;;;;;;;16.11;50.55;100474.16;10461239;28;20408;-78
2022/05/14 20:59:11;;;;;;;8.23;2.72;;;;;;;16.08;50.66;100477.00;10548599;28;20044;-79
2022/05/14 21:04:13;;;;;;;5.30;2.75;;;;;;;15.86;51.50;100483.28;10464439;28;20048;-80
2022/05/14 21:09:15;;;;;;;8.07;3.15;;;;;;;15.78;51.72;100484.56;10552549;28;20028;-79
2022/05/14 21:14:17;;;;;;;8.00;3.50;;;;;;;15.67;52.04;100479.78;10549104;28;20129;-79
2022/05/14 21:19:22;;;;;;;7.88;2.92;;;;;;;15.43;53.10;100481.69;10461132;28;20036;-78
2022/05/14 21:24:26;;;;;;;9.02;2.80;;;;;;;15.32;53.24;100484.84;10461559;28;20044;-79
2022/05/14 21:29:27;;;;;;;9.35;3.10;;;;;;;15.42;53.13;100482.63;10469511;28;20043;-79
2022/05/14 21:39:49;;;;;;;6.78;2.83;;;;;;;15.23;53.90;100482.59;10468430;28;20097;-78
2022/05/14 21:44:51;;;;;;;10.27;3.17;;;;;;;15.13;54.01;100487.41;10467781;28;20047;-78
2022/05/14 21:49:52;;;;;;;9.90;3.10;;;;;;;15.32;53.70;100478.69;10556539;28;20051;-78
2022/05/14 21:54:56;;;;;;;7.25;3.38;;;;;;;15.39;53.50;100478.31;10499984;28;20074;-78
2022/05/14 21:59:57;;;;;;;5.40;3.17;;;;;;;15.41;53.40;100480.91;10588742;28;20044;-79
2022/05/14 22:04:59;;;;;;;7.72;3.50;;;;;;;15.33;53.51;100488.34;10587669;28;20028;-80
2022/05/14 22:10:00;;;;;;;6.63;3.05;;;;;;;15.30;53.36;100486.69;10590576;28;20024;-79
2022/05/14 22:15:02;;;;;;;10.10;3.35;;;;;;;15.20;53.88;100493.31;10591787;27;20070;-79
2022/05/14 22:20:07;;;;;;;12.25;3.00;;;;;;;15.09;54.30;100495.56;10595060;28;20069;-79
2022/05/14 22:25:12;;;;;;;6.53;3.65;;;;;;;14.93;55.01;100498.00;10496141;28;20113;-79
2022/05/14 22:30:16;;;;;;;7.13;3.17;;;;;;;14.69;55.52;100496.38;10557305;28;20127;-79
2022/05/14 22:35:19;;;;;;;7.72;3.20;;;;;;;14.49;56.10;100506.00;10485311;28;20497;-79
2022/05/14 22:45:41;;;;;;;12.10;2.83;;;;;;;14.25;57.25;100506.94;10557468;28;20462;-79
2022/05/14 22:50:44;;;;;;;6.18;2.72;;;;;;;14.20;56.93;100515.03;10552978;28;20044;-79
2022/05/14 22:55:50;;;;;;;8.45;3.30;;;;;;;14.29;56.93;100513.81;10467264;28;20044;-79
2022/05/14 23:00:57;;;;;;;7.35;3.53;;;;;;;14.19;57.05;100520.41;10472198;28;20559;-79
2022/05/14 23:05:59;;;;;;;;;;;;;;;14.17;57.48;100522.25;10558990;28;20032;-79
2022/05/14 23:11:03;;;;;;;9.68;3.72;;;;;;;14.34;56.21;100520.66;10470685;28;19920;-79
2022/05/14 23:16:06;;;;;;;7.70;3.45;;;;;;;13.96;58.14;100529.22;10553664;28;20052;-79
2022/05/14 23:21:08;;;;;;;9.45;4.10;;;;;;;13.76;58.69;100525.50;10465359;28;20067;-80
2022/05/14 23:26:09;;;;;;;9.38;2.65;;;;;;;13.78;58.45;100536.06;10548035;28;20089;-79
2022/05/14 23:31:11;;;;;;;8.95;3.63;;;;;;;13.54;59.21;100536.00;10550177;28;20047;-78
2022/05/14 23:36:25;;;;;;;6.53;2.72;;;;;;;13.55;59.21;100539.53;10462536;28;20044;-78
2022/05/14 23:41:27;;;;;;;15.82;3.63;;;;;;;13.84;59.01;100538.44;10550566;28;20071;-78
2022/05/14 23:46:28;;;;;;;7.97;3.03;;;;;;;13.58;59.27;100537.63;10465015;28;20531;-78
2022/05/14 23:51:30;;;;;;;10.32;3.08;;;;;;;13.79;58.29;100538.63;10549671;28;20044;-78
2022/05/14 23:56:31;;;;;;;8.23;2.83;;;;;;;13.75;58.66;100541.44;10546864;28;20040;-78
